Time,TemperatureF,DewpointF,PressureIn,WindDirection,WindDirectionDegrees,WindSpeedMPH,WindSpeedGustMPH,Humidity,HourlyPrecipIn,Conditions,Clouds,dailyrainin,SoftwareType,DateUTC
2013-07-05 00:00:00,80.8,70.9,30.00,SSE,158,2.7,2.7,72,0.00,CLR,,0.00,WeatherDisplay:10.37,2013-07-05 04:00:00,
2013-07-05 00:01:00,80.8,70.9,30.00,ESE,112,2.7,2.7,72,0.00,CLR,,0.00,WeatherDisplay:10.37,2013-07-05 04:01:00,
2013-07-05 00:06:00,80.6,70.7,30.00,NE,45,4.7,4.7,72,0.00,CLR,,0.00,WeatherDisplay:10.37,2013-07-05 04:06:00,
2013-07-05 00:11:00,80.6,70.7,30.00,South,180,3.5,3.5,72,0.00,CLR,,0.00,WeatherDisplay:10.37,2013-07-05 04:11:00,
2013-07-05 00:16:00,80.4,70.9,30.00,NE,45,2.3,2.3,73,0.00,CLR,,0.00,WeatherDisplay:10.37,2013-07-05 04:16:00,
2013-07-05 00:21:00,80.4,70.9,30.00,West,270,3.5,3.5,73,0.00,CLR,,0.00,WeatherDisplay:10.37,2013-07-05 04:21:00,
2013-07-05 00:26:00,80.4,70.9,30.00,West,270,2.3,2.3,73,0.00,CLR,,0.00,WeatherDisplay:10.37,2013-07-05 04:26:00,
2013-07-05 00:31:00,80.2,71.2,30.00,East,90,2.7,2.7,74,0.00,CLR,,0.00,WeatherDisplay:10.37,2013-07-05 04:31:00,
2013-07-05 00:36:00,80.1,71.1,30.00,NNE,22,3.5,3.5,74,0.00,CLR,,0.00,WeatherDisplay:10.37,2013-07-05 04:36:00,
2013-07-05 00:41:00,80.1,71.1,30.00,NE,45,2.3,2.3,74,0.00,CLR,,0.00,WeatherDisplay:10.37,2013-07-05 04:41:00,
2013-07-05 00:47:00,79.9,71.3,30.00,NE,45,2.2,2.2,75,0.00,CLR,,0.00,WeatherDisplay:10.37,2013-07-05 04:47:00,
2013-07-05 00:51:00,79.7,71.1,30.01,NNE,22,2.7,2.7,75,0.00,CLR,,0.00,WeatherDisplay:10.37,2013-07-05 04:51:00,
2013-07-05 00:57:00,79.5,71.3,30.01,SE,135,2.3,2.3,76,0.00,CLR,,0.00,WeatherDisplay:10.37,2013-07-05 04:57:00,
2013-07-05 01:02:00,79.3,71.1,30.01,SSE,158,4.6,4.6,76,0.00,CLR,,0.00,WeatherDisplay:10.37,2013-07-05 05:02:00,
2013-07-05 01:07:00,79.3,71.1,30.00,West,270,1.2,1.2,76,0.00,CLR,,0.00,WeatherDisplay:10.37,2013-07-05 05:07:00,
2013-07-05 01:12:00,79.2,71.4,30.00,ENE,68,1.7,1.7,77,0.00,CLR,,0.00,WeatherDisplay:10.37,2013-07-05 05:12:00,
2013-07-05 01:17:00,79.0,71.2,30.01,ENE,68,2.7,2.7,77,0.00,CLR,,0.00,WeatherDisplay:10.37,2013-07-05 05:17:00,
2013-07-05 01:22:00,78.8,71.0,30.01,NE,45,2.3,2.3,77,0.00,CLR,,0.00,WeatherDisplay:10.37,2013-07-05 05:22:00,
2013-07-05 01:27:00,78.8,71.0,30.00,East,90,1.7,1.7,77,0.00,CLR,,0.00,WeatherDisplay:10.37,2013-07-05 05:27:00,
2013-07-05 01:32:00,78.8,71.0,30.00,NE,45,1.2,1.2,77,0.00,CLR,,0.00,WeatherDisplay:10.37,2013-07-05 05:32:00,
2013-07-05 01:37:00,78.6,71.2,30.00,WNW,292,0.0,0.0,78,0.00,CLR,,0.00,WeatherDisplay:10.37,2013-07-05 05:37:00,
2013-07-05 01:42:00,78.4,71.3,30.00,NNE,22,1.2,1.2,79,0.00,CLR,,0.00,WeatherDisplay:10.37,2013-07-05 05:42:00,
2013-07-05 01:47:00,78.3,71.2,30.00,WNW,292,2.3,2.3,79,0.00,CLR,,0.00,WeatherDisplay:10.37,2013-07-05 05:47:00,
2013-07-05 01:52:00,78.1,71.1,30.00,ENE,68,1.2,1.2,79,0.00,CLR,,0.00,WeatherDisplay:10.37,2013-07-05 05:52:00,
2013-07-05 01:57:00,78.3,71.2,30.00,WNW,292,2.3,2.3,79,0.00,CLR,,0.00,WeatherDisplay:10.37,2013-07-05 05:57:00,
2013-07-05 02:02:00,78.3,71.2,30.00,NNE,22,1.2,1.2,79,0.00,CLR,,0.00,WeatherDisplay:10.37,2013-07-05 06:02:00,
2013-07-05 02:07:00,78.1,71.1,30.00,SSE,158,1.1,0.0,79,0.00,CLR,,0.00,WeatherDisplay:10.37,2013-07-05 06:07:00,
2013-07-05 02:12:00,78.1,71.1,30.00,ESE,112,2.3,2.3,79,0.00,CLR,,0.00,WeatherDisplay:10.37,2013-07-05 06:12:00,
2013-07-05 02:17:00,77.7,71.0,30.00,ENE,68,2.3,2.3,80,0.00,CLR,,0.00,WeatherDisplay:10.37,2013-07-05 06:17:00,
2013-07-05 02:22:00,77.7,71.0,30.00,NNE,22,2.7,2.7,80,0.00,CLR,,0.00,WeatherDisplay:10.37,2013-07-05 06:22:00,
2013-07-05 02:27:00,77.9,71.2,30.00,ESE,112,2.3,2.3,80,0.00,CLR,,0.00,WeatherDisplay:10.37,2013-07-05 06:27:00,
2013-07-05 02:32:00,77.7,71.0,30.00,NNE,22,4.6,4.6,80,0.00,CLR,,0.00,WeatherDisplay:10.37,2013-07-05 06:32:00,
2013-07-05 02:37:00,77.5,70.8,30.00,ESE,112,4.6,4.6,80,0.00,CLR,,0.00,WeatherDisplay:10.37,2013-07-05 06:37:00,
2013-07-05 02:42:00,77.7,71.0,30.00,NNE,22,3.5,3.5,80,0.00,CLR,,0.00,WeatherDisplay:10.37,2013-07-05 06:42:00,
2013-07-05 02:47:00,77.5,70.8,30.00,ENE,68,4.2,4.2,80,0.00,CLR,,0.00,WeatherDisplay:10.37,2013-07-05 06:47:00,
2013-07-05 02:52:00,77.4,70.7,30.00,NE,45,2.3,2.3,80,0.00,CLR,,0.00,WeatherDisplay:10.37,2013-07-05 06:52:00,
2013-07-05 02:57:00,77.4,71.1,30.00,West,270,2.3,2.3,81,0.00,CLR,,0.00,WeatherDisplay:10.37,2013-07-05 06:57:00,
2013-07-05 03:02:00,77.2,70.9,30.00,East,90,2.3,2.3,81,0.00,CLR,,0.00,WeatherDisplay:10.37,2013-07-05 07:02:00,
2013-07-05 03:07:00,77.2,70.9,30.00,ENE,68,1.2,1.2,81,0.00,CLR,,0.00,WeatherDisplay:10.37,2013-07-05 07:07:00,
2013-07-05 03:12:00,77.0,70.7,30.00,WNW,292,1.2,1.2,81,0.00,CLR,,0.00,WeatherDisplay:10.37,2013-07-05 07:12:00,
2013-07-05 05:04:00,75.0,70.5,30.00,North,0,2.3,0.0,86,0.00,CLR,,0.00,WeatherDisplay:10.37,2013-07-05 09:04:00,
2013-07-05 05:10:00,75.2,70.7,30.02,NNE,22,2.3,2.3,86,0.00,CLR,,0.00,WeatherDisplay:10.37,2013-07-05 09:10:00,
2013-07-05 05:15:00,75.2,70.7,30.02,NE,45,0.0,0.0,86,0.00,CLR,,0.00,WeatherDisplay:10.37,2013-07-05 09:15:00,
2013-07-05 05:21:00,75.4,70.9,30.02,NNE,22,1.2,0.0,86,0.00,CLR,,0.00,WeatherDisplay:10.37,2013-07-05 09:21:00,
2013-07-05 05:26:00,75.2,70.7,30.02,NE,45,2.3,0.0,86,0.00,CLR,,0.00,WeatherDisplay:10.37,2013-07-05 09:26:00,
2013-07-05 05:31:00,75.6,71.1,30.02,South,180,2.3,2.3,86,0.00,CLR,,0.00,WeatherDisplay:10.37,2013-07-05 09:31:00,
2013-07-05 05:37:00,75.6,71.1,30.02,ENE,68,1.2,1.2,86,0.00,CLR,,0.00,WeatherDisplay:10.37,2013-07-05 09:37:00,
2013-07-05 05:42:00,75.2,70.7,30.02,East,90,2.3,2.3,86,0.00,CLR,,0.00,WeatherDisplay:10.37,2013-07-05 09:42:00,
2013-07-05 05:48:00,75.2,70.7,30.02,NE,45,3.5,3.5,86,0.00,CLR,,0.00,WeatherDisplay:10.37,2013-07-05 09:48:00,
2013-07-05 05:53:00,75.4,70.9,30.03,East,90,0.0,0.0,86,0.00,CLR,,0.00,WeatherDisplay:10.37,2013-07-05 09:53:00,
2013-07-05 05:58:00,75.7,70.9,30.03,WNW,292,0.0,0.0,85,0.00,CLR,,0.00,WeatherDisplay:10.37,2013-07-05 09:58:00,
2013-07-05 06:03:00,76.1,71.3,30.03,West,270,0.0,0.0,85,0.00,CLR,,0.00,WeatherDisplay:10.37,2013-07-05 10:03:00,
2013-07-05 06:08:00,76.6,71.4,30.03,ENE,68,2.3,2.3,84,0.00,CLR,,0.00,WeatherDisplay:10.37,2013-07-05 10:08:00,
2013-07-05 06:13:00,77.2,71.6,30.03,ENE,68,1.2,1.3,83,0.00,CLR,,0.00,WeatherDisplay:10.37,2013-07-05 10:13:00,
2013-07-05 06:19:00,77.7,71.8,30.03,West,270,0.0,0.0,82,0.00,CLR,,0.00,WeatherDisplay:10.37,2013-07-05 10:19:00,
2013-07-05 06:24:00,78.3,71.6,30.03,ENE,68,0.0,0.0,80,0.00,CLR,,0.00,WeatherDisplay:10.37,2013-07-05 10:24:00,
2013-07-05 06:29:00,78.8,71.7,30.03,NE,45,1.2,1.3,79,0.00,CLR,,0.00,WeatherDisplay:10.37,2013-07-05 10:29:00,
2013-07-05 06:34:00,79.2,71.7,30.03,NNE,22,0.0,0.0,78,0.00,CLR,,0.00,WeatherDisplay:10.37,2013-07-05 10:34:00,
2013-07-05 06:39:00,79.5,72.0,30.03,NNE,22,1.2,1.2,78,0.00,CLR,,0.00,WeatherDisplay:10.37,2013-07-05 10:39:00,
2013-07-05 06:44:00,80.2,71.6,30.03,SE,135,3.5,3.5,75,0.00,CLR,,0.00,WeatherDisplay:10.37,2013-07-05 10:44:00,
2013-07-05 06:49:00,80.2,71.9,30.03,South,180,2.3,0.0,76,0.00,CLR,,0.00,WeatherDisplay:10.37,2013-07-05 10:49:00,
2013-07-05 06:55:00,81.7,72.2,30.03,ENE,68,3.7,3.7,73,0.00,CLR,,0.00,WeatherDisplay:10.37,2013-07-05 10:55:00,
2013-07-05 07:00:00,81.7,72.6,30.03,SE,135,1.2,1.2,74,0.00,CLR,,0.00,WeatherDisplay:10.37,2013-07-05 11:00:00,
2013-07-05 07:05:00,82.0,72.1,30.04,SSE,158,0.0,0.0,72,0.00,CLR,,0.00,WeatherDisplay:10.37,2013-07-05 11:05:00,
2013-07-05 07:11:00,83.1,72.7,30.04,NNE,22,1.2,1.2,71,0.00,CLR,,0.00,WeatherDisplay:10.37,2013-07-05 11:11:00,
2013-07-05 07:16:00,83.5,72.3,30.03,South,180,2.3,2.3,69,0.00,CLR,,0.00,WeatherDisplay:10.37,2013-07-05 11:16:00,
2013-07-05 07:21:00,84.7,72.1,30.03,East,90,4.6,4.6,66,0.00,CLR,,0.00,WeatherDisplay:10.37,2013-07-05 11:21:00,
2013-07-05 07:27:00,84.9,72.7,30.04,ENE,68,2.3,2.3,67,0.00,CLR,,0.00,WeatherDisplay:10.37,2013-07-05 11:27:00,
2013-07-05 07:32:00,84.7,72.5,30.04,ESE,112,2.3,2.3,67,0.00,CLR,,0.00,WeatherDisplay:10.37,2013-07-05 11:32:00,
2013-07-05 07:37:00,84.4,72.2,30.04,ESE,112,2.3,2.3,67,0.00,CLR,,0.00,WeatherDisplay:10.37,2013-07-05 11:37:00,
2013-07-05 07:42:00,84.4,72.7,30.04,ENE,68,2.7,2.7,68,0.00,CLR,,0.00,WeatherDisplay:10.37,2013-07-05 11:42:00,
2013-07-05 07:48:00,85.1,72.0,30.04,East,90,2.7,2.7,65,0.00,CLR,,0.00,WeatherDisplay:10.37,2013-07-05 11:48:00,
2013-07-05 07:54:00,82.8,72.0,30.04,NNE,22,1.7,1.7,70,0.00,CLR,,0.00,WeatherDisplay:10.37,2013-07-05 11:54:00,
2013-07-05 07:59:00,82.4,72.0,30.04,East,90,2.7,2.7,71,0.00,CLR,,0.00,WeatherDisplay:10.37,2013-07-05 11:59:00,
2013-07-05 08:04:00,82.4,72.0,30.04,NE,45,1.7,1.7,71,0.00,CLR,,0.00,WeatherDisplay:10.37,2013-07-05 12:04:00,
2013-07-05 08:09:00,82.9,72.1,30.04,NE,45,2.3,2.3,70,0.00,CLR,,0.00,WeatherDisplay:10.37,2013-07-05 12:09:00,
2013-07-05 08:14:00,83.1,72.3,30.04,West,270,5.8,5.8,70,0.00,CLR,,0.00,WeatherDisplay:10.37,2013-07-05 12:14:00,
2013-07-05 08:19:00,83.7,72.4,30.04,SE,141,2.0,5.0,69,0.00,CLR,,0.00,WeatherDisplay:10.37,2013-07-05 12:19:00,
2013-07-05 08:24:00,83.9,72.6,30.04,ENE,77,1.0,6.0,69,0.00,CLR,,0.00,WeatherDisplay:10.37,2013-07-05 12:24:00,
2013-07-05 08:29:00,84.5,72.4,30.04,ENE,69,2.0,4.0,67,0.00,CLR,,0.00,WeatherDisplay:10.37,2013-07-05 12:29:00,
2013-07-05 08:34:00,84.0,72.3,30.04,ESE,120,0.0,4.0,68,0.00,CLR,,0.00,WeatherDisplay:10.37,2013-07-05 12:34:00,
2013-07-05 08:39:00,84.6,72.9,30.04,ESE,112,2.2,2.2,68,0.00,CLR,,0.00,WeatherDisplay:10.37,2013-07-05 12:39:00,
2013-07-05 08:44:00,84.9,72.3,30.04,ESE,106,3.0,4.0,66,0.00,CLR,,0.00,WeatherDisplay:10.37,2013-07-05 12:44:00,
2013-07-05 08:49:00,84.7,73.0,30.04,South,180,4.2,4.2,68,0.00,CLR,,0.00,WeatherDisplay:10.37,2013-07-05 12:49:00,
2013-07-05 08:54:00,84.7,72.5,30.04,NNE,22,2.3,2.3,67,0.00,CLR,,0.00,WeatherDisplay:10.37,2013-07-05 12:54:00,
2013-07-05 08:59:00,84.7,71.6,30.04,NE,45,1.7,1.7,65,0.00,CLR,,0.00,WeatherDisplay:10.37,2013-07-05 12:59:00,
2013-07-05 09:04:00,85.5,72.4,30.04,South,182,3.0,5.0,65,0.00,CLR,,0.00,WeatherDisplay:10.37,2013-07-05 13:04:00,
2013-07-05 09:09:00,85.8,72.7,30.04,West,270,3.7,3.7,65,0.00,CLR,,0.00,WeatherDisplay:10.37,2013-07-05 13:09:00,
2013-07-05 09:14:00,86.4,71.8,30.03,East,97,1.0,4.0,62,0.00,CLR,,0.00,WeatherDisplay:10.37,2013-07-05 13:14:00,
2013-07-05 09:19:00,85.5,72.8,30.03,SSE,158,2.3,2.3,66,0.00,CLR,,0.00,WeatherDisplay:10.37,2013-07-05 13:19:00,
2013-07-05 09:24:00,86.9,72.3,30.03,East,95,1.0,3.0,62,0.00,CLR,,0.00,WeatherDisplay:10.37,2013-07-05 13:24:00,
2013-07-05 09:30:00,86.0,73.3,30.03,ENE,68,1.0,3.0,66,0.00,CLR,,0.00,WeatherDisplay:10.37,2013-07-05 13:30:00,
2013-07-05 09:35:00,87.1,73.0,30.03,South,180,2.7,2.7,63,0.00,CLR,,0.00,WeatherDisplay:10.37,2013-07-05 13:35:00,
2013-07-05 09:40:00,87.4,72.8,30.02,ESE,112,2.3,2.3,62,0.00,CLR,,0.00,WeatherDisplay:10.37,2013-07-05 13:40:00,
2013-07-05 09:46:00,86.4,72.8,30.02,East,90,2.3,2.3,64,0.00,CLR,,0.00,WeatherDisplay:10.37,2013-07-05 13:46:00,
2013-07-05 09:51:00,87.8,72.7,30.02,ESE,112,1.7,1.7,61,0.00,CLR,,0.00,WeatherDisplay:10.37,2013-07-05 13:51:00,
2013-07-05 09:58:00,87.3,72.2,30.02,NNE,22,3.5,0.0,61,0.00,CLR,,0.00,WeatherDisplay:10.37,2013-07-05 13:58:00,
2013-07-05 10:04:00,87.8,72.7,30.02,SE,135,2.3,2.3,61,0.00,CLR,,0.00,WeatherDisplay:10.37,2013-07-05 14:04:00,
2013-07-05 10:08:00,87.6,73.0,30.02,West,270,4.2,4.2,62,0.00,CLR,,0.00,WeatherDisplay:10.37,2013-07-05 14:08:00,
2013-07-05 10:14:00,87.3,72.2,30.02,NE,45,1.2,1.2,61,0.00,CLR,,0.00,WeatherDisplay:10.37,2013-07-05 14:14:00,
2013-07-05 10:19:00,88.2,72.1,30.02,ENE,68,3.7,3.7,59,0.00,CLR,,0.00,WeatherDisplay:10.37,2013-07-05 14:19:00,
2013-07-05 10:24:00,88.5,72.3,30.02,NE,45,4.6,4.6,59,0.00,CLR,,0.00,WeatherDisplay:10.37,2013-07-05 14:24:00,
2013-07-05 10:29:00,88.7,72.0,30.02,ESE,102,2.0,4.0,58,0.00,CLR,,0.00,WeatherDisplay:10.37,2013-07-05 14:29:00,
2013-07-05 10:34:00,89.4,73.2,30.02,ESE,111,2.0,3.0,59,0.00,CLR,,0.00,WeatherDisplay:10.37,2013-07-05 14:34:00,
2013-07-05 10:40:00,88.9,71.2,30.02,East,90,3.5,3.5,56,0.00,CLR,,0.00,WeatherDisplay:10.37,2013-07-05 14:40:00,
2013-07-05 10:45:00,88.3,72.2,30.02,ESE,112,3.5,3.5,59,0.00,CLR,,0.00,WeatherDisplay:10.37,2013-07-05 14:45:00,
2013-07-05 10:50:00,89.2,71.5,30.02,West,270,3.5,3.5,56,0.00,CLR,,0.00,WeatherDisplay:10.37,2013-07-05 14:50:00,
2013-07-05 10:55:00,88.9,71.7,30.02,SE,135,3.2,3.2,57,0.00,CLR,,0.00,WeatherDisplay:10.37,2013-07-05 14:55:00,
2013-07-05 11:00:00,89.2,72.5,30.02,ESE,112,3.5,3.5,58,0.00,CLR,,0.00,WeatherDisplay:10.37,2013-07-05 15:00:00,
2013-07-05 11:05:00,88.5,71.8,30.01,South,180,3.5,3.5,58,0.00,CLR,,0.00,WeatherDisplay:10.37,2013-07-05 15:05:00,
2013-07-05 11:10:00,89.4,71.6,30.01,ESE,112,2.3,2.6,56,0.00,CLR,,0.00,WeatherDisplay:10.37,2013-07-05 15:10:00,
2013-07-05 11:16:00,89.4,72.2,30.01,East,90,2.3,2.3,57,0.00,CLR,,0.00,WeatherDisplay:10.37,2013-07-05 15:16:00,
2013-07-05 11:22:00,89.4,71.1,30.01,ESE,112,2.3,2.3,55,0.00,CLR,,0.00,WeatherDisplay:10.37,2013-07-05 15:22:00,
2013-07-05 11:27:00,89.8,72.0,30.01,NE,45,1.2,1.2,56,0.00,CLR,,0.00,WeatherDisplay:10.37,2013-07-05 15:27:00,
2013-07-05 11:32:00,89.2,70.9,30.01,West,270,4.6,4.6,55,0.00,CLR,,0.00,WeatherDisplay:10.37,2013-07-05 15:32:00,
2013-07-05 11:37:00,90.3,71.4,30.01,ESE,112,2.3,2.3,54,0.00,CLR,,0.00,WeatherDisplay:10.37,2013-07-05 15:37:00,
2013-07-05 11:42:00,90.1,71.8,30.01,NE,45,1.2,1.6,55,0.00,CLR,,0.00,WeatherDisplay:10.37,2013-07-05 15:42:00,
2013-07-05 11:47:00,91.0,70.9,30.01,SE,135,2.3,2.3,52,0.00,CLR,,0.00,WeatherDisplay:10.37,2013-07-05 15:47:00,
2013-07-05 11:49:00,91.4,73.0,30.00,NE,45,4.6,4.6,55,0.00,CLR,,0.00,WeatherDisplay:10.37,2013-07-05 15:49:00,
2013-07-05 11:54:00,90.3,72.5,30.00,NNE,22,4.6,4.6,56,0.00,CLR,,0.00,WeatherDisplay:10.37,2013-07-05 15:54:00,
2013-07-05 11:59:00,91.2,71.1,30.00,NE,45,4.6,4.6,52,0.00,CLR,,0.00,WeatherDisplay:10.37,2013-07-05 15:59:00,
2013-07-05 12:04:00,90.8,72.9,30.00,East,85,0.0,3.0,56,0.00,CLR,,0.00,WeatherDisplay:10.37,2013-07-05 16:04:00,
2013-07-05 12:05:00,91.0,72.6,30.00,ESE,112,0.0,0.3,55,0.00,CLR,,0.00,WeatherDisplay:10.37,2013-07-05 16:05:00,
2013-07-05 12:10:00,91.8,72.2,30.00,SE,135,3.5,3.5,53,0.00,CLR,,0.00,WeatherDisplay:10.37,2013-07-05 16:10:00,
2013-07-05 12:15:00,90.7,72.3,30.00,NNE,22,2.3,2.3,55,0.00,CLR,,0.00,WeatherDisplay:10.37,2013-07-05 16:15:00,
2013-07-05 12:20:00,91.4,71.3,30.00,East,90,3.5,3.5,52,0.00,CLR,,0.00,WeatherDisplay:10.37,2013-07-05 16:20:00,
2013-07-05 12:25:00,90.7,71.2,30.00,NNE,22,3.5,3.5,53,0.00,CLR,,0.00,WeatherDisplay:10.37,2013-07-05 16:25:00,
2013-07-05 12:30:00,91.4,71.3,30.00,South,180,1.7,1.7,52,0.00,CLR,,0.00,WeatherDisplay:10.37,2013-07-05 16:30:00,
2013-07-05 12:35:00,91.4,71.3,30.00,South,180,1.7,1.7,52,0.00,CLR,,0.00,WeatherDisplay:10.37,2013-07-05 16:35:00,
2013-07-05 12:40:00,91.6,73.1,29.99,West,270,3.5,3.5,55,0.00,CLR,,0.00,WeatherDisplay:10.37,2013-07-05 16:40:00,
2013-07-05 12:45:00,91.4,73.0,29.99,NE,45,2.3,2.3,55,0.00,CLR,,0.00,WeatherDisplay:10.37,2013-07-05 16:45:00,
2013-07-05 12:50:00,90.9,72.5,29.99,ESE,112,4.6,4.6,55,0.00,CLR,,0.00,WeatherDisplay:10.37,2013-07-05 16:50:00,
2013-07-05 12:55:00,93.7,69.8,29.99,SSE,158,4.6,4.6,46,0.00,CLR,,0.00,WeatherDisplay:10.37,2013-07-05 16:55:00,
2013-07-05 13:00:00,93.7,69.8,29.99,ESE,112,7.3,7.3,46,0.00,CLR,,0.00,WeatherDisplay:10.37,2013-07-05 17:00:00,
2013-07-05 13:05:00,93.0,69.8,29.98,NE,45,4.6,4.6,47,0.00,CLR,,0.00,WeatherDisplay:10.37,2013-07-05 17:05:00,
2013-07-05 13:10:00,93.2,71.2,29.98,ESE,112,2.3,2.3,49,0.00,CLR,,0.00,WeatherDisplay:10.37,2013-07-05 17:10:00,
2013-07-05 13:15:00,93.0,71.0,29.98,SSE,158,2.3,2.3,49,0.00,CLR,,0.00,WeatherDisplay:10.37,2013-07-05 17:15:00,
2013-07-05 13:20:00,93.6,72.2,29.98,ESE,112,2.3,2.3,50,0.00,CLR,,0.00,WeatherDisplay:10.37,2013-07-05 17:20:00,
2013-07-05 13:25:00,92.8,71.4,29.98,NNE,22,4.6,4.6,50,0.00,CLR,,0.00,WeatherDisplay:10.37,2013-07-05 17:25:00,
2013-07-05 13:30:00,93.7,72.3,29.98,SSE,158,3.5,3.5,50,0.00,CLR,,0.00,WeatherDisplay:10.37,2013-07-05 17:30:00,
2013-07-05 13:35:00,91.8,71.1,29.98,West,270,3.5,3.5,51,0.00,CLR,,0.00,WeatherDisplay:10.37,2013-07-05 17:35:00,
2013-07-05 13:40:00,91.9,71.2,29.98,NE,45,4.6,4.6,51,0.00,CLR,,0.00,WeatherDisplay:10.37,2013-07-05 17:40:00,
2013-07-05 13:45:00,93.0,71.6,29.98,SE,135,3.5,3.5,50,0.00,CLR,,0.00,WeatherDisplay:10.37,2013-07-05 17:45:00,
2013-07-05 13:50:00,93.7,72.8,29.97,NE,45,3.2,3.2,51,0.00,CLR,,0.00,WeatherDisplay:10.37,2013-07-05 17:50:00,
2013-07-05 13:55:00,91.9,72.3,29.97,NNE,22,2.3,2.3,53,0.00,CLR,,0.00,WeatherDisplay:10.37,2013-07-05 17:55:00,
2013-07-05 14:00:00,94.5,72.4,29.97,ESE,112,5.8,5.8,49,0.00,CLR,,0.00,WeatherDisplay:10.37,2013-07-05 18:00:00,
2013-07-05 14:05:00,91.0,71.5,29.97,SSE,158,4.6,4.6,53,0.00,CLR,,0.00,WeatherDisplay:10.37,2013-07-05 18:05:00,
2013-07-05 14:10:00,91.8,72.2,29.97,East,90,3.5,3.5,53,0.00,CLR,,0.00,WeatherDisplay:10.37,2013-07-05 18:10:00,
2013-07-05 14:15:00,93.2,71.8,29.97,NNE,22,3.2,3.2,50,0.00,CLR,,0.00,WeatherDisplay:10.37,2013-07-05 18:15:00,
2013-07-05 14:20:00,92.7,73.1,29.97,NE,45,2.3,2.3,53,0.00,CLR,,0.00,WeatherDisplay:10.37,2013-07-05 18:20:00,
2013-07-05 14:25:00,92.1,72.5,29.97,East,90,2.3,2.3,53,0.00,CLR,,0.00,WeatherDisplay:10.37,2013-07-05 18:25:00,
2013-07-05 14:30:00,92.5,72.9,29.96,ESE,112,3.5,3.5,53,0.00,CLR,,0.00,WeatherDisplay:10.37,2013-07-05 18:30:00,
2013-07-05 14:35:00,93.2,74.1,29.96,ESE,112,3.5,3.5,54,0.00,CLR,,0.00,WeatherDisplay:10.37,2013-07-05 18:35:00,
2013-07-05 14:40:00,93.2,72.4,29.96,West,270,5.8,5.8,51,0.00,CLR,,0.00,WeatherDisplay:10.37,2013-07-05 18:40:00,
2013-07-05 14:45:00,93.4,72.0,29.96,ENE,68,3.7,3.7,50,0.00,CLR,,0.00,WeatherDisplay:10.37,2013-07-05 18:45:00,
2013-07-05 14:50:00,93.6,71.6,29.96,South,180,5.8,7.3,49,0.00,CLR,,0.00,WeatherDisplay:10.37,2013-07-05 18:50:00,
2013-07-05 14:55:00,92.3,72.1,29.96,SSE,158,2.7,2.7,52,0.00,CLR,,0.00,WeatherDisplay:10.37,2013-07-05 18:55:00,
2013-07-05 15:00:00,93.6,72.2,29.96,NE,45,3.2,3.2,50,0.00,CLR,,0.00,WeatherDisplay:10.37,2013-07-05 19:00:00,
2013-07-05 15:05:00,93.4,72.0,29.96,SSE,158,3.7,3.7,50,0.00,CLR,,0.00,WeatherDisplay:10.37,2013-07-05 19:05:00,
2013-07-05 15:10:00,93.2,73.5,29.96,ESE,112,1.7,1.9,53,0.00,CLR,,0.00,WeatherDisplay:10.37,2013-07-05 19:10:00,
2013-07-05 15:15:00,93.2,72.4,29.95,ESE,112,3.5,3.5,51,0.00,CLR,,0.00,WeatherDisplay:10.37,2013-07-05 19:15:00,
2013-07-05 15:20:00,93.6,72.7,29.95,NE,45,3.7,3.7,51,0.00,CLR,,0.00,WeatherDisplay:10.37,2013-07-05 19:20:00,
2013-07-05 15:25:00,93.4,72.0,29.95,East,90,3.5,3.5,50,0.00,CLR,,0.00,WeatherDisplay:10.37,2013-07-05 19:25:00,
2013-07-05 15:31:00,93.0,73.3,29.95,ESE,112,3.2,3.2,53,0.00,CLR,,0.00,WeatherDisplay:10.37,2013-07-05 19:31:00,
2013-07-05 15:36:00,94.5,73.6,29.95,ESE,112,7.3,7.3,51,0.00,CLR,,0.00,WeatherDisplay:10.37,2013-07-05 19:36:00,
2013-07-05 15:41:00,92.7,71.9,29.93,NE,45,5.8,5.8,51,0.00,CLR,,0.00,WeatherDisplay:10.37,2013-07-05 19:41:00,
2013-07-05 15:46:00,93.9,73.0,29.93,NE,45,4.6,4.6,51,0.00,CLR,,0.00,WeatherDisplay:10.37,2013-07-05 19:46:00,
2013-07-05 15:51:00,93.7,72.8,29.94,South,180,4.6,4.6,51,0.00,CLR,,0.00,WeatherDisplay:10.37,2013-07-05 19:51:00,
2013-07-05 15:56:00,93.7,72.3,29.94,ENE,68,5.8,5.8,50,0.00,CLR,,0.00,WeatherDisplay:10.37,2013-07-05 19:56:00,
2013-07-05 16:01:00,93.9,73.0,29.94,ESE,112,5.8,5.8,51,0.00,CLR,,0.00,WeatherDisplay:10.37,2013-07-05 20:01:00,
2013-07-05 16:06:00,94.1,72.6,29.93,ESE,112,2.3,2.3,50,0.00,CLR,,0.00,WeatherDisplay:10.37,2013-07-05 20:06:00,
2013-07-05 16:11:00,93.0,72.2,29.93,SE,135,2.3,2.5,51,0.00,CLR,,0.00,WeatherDisplay:10.37,2013-07-05 20:11:00,
2013-07-05 16:16:00,94.3,73.4,29.93,NNE,22,1.7,1.7,51,0.00,CLR,,0.00,WeatherDisplay:10.37,2013-07-05 20:16:00,
2013-07-05 16:21:00,97.0,73.4,29.93,ENE,68,5.8,5.8,47,0.00,CLR,,0.00,WeatherDisplay:10.37,2013-07-05 20:21:00,
2013-07-05 16:26:00,96.8,73.9,29.93,South,180,4.6,4.6,48,0.00,CLR,,0.00,WeatherDisplay:10.37,2013-07-05 20:26:00,
2013-07-05 16:31:00,97.7,74.1,29.93,NE,45,3.5,3.5,47,0.00,CLR,,0.00,WeatherDisplay:10.37,2013-07-05 20:31:00,
2013-07-05 16:36:00,95.9,73.1,29.93,NE,45,3.5,3.5,48,0.00,CLR,,0.00,WeatherDisplay:10.37,2013-07-05 20:36:00,
2013-07-05 16:41:00,96.6,73.7,29.93,East,90,2.7,2.7,48,0.00,CLR,,0.00,WeatherDisplay:10.37,2013-07-05 20:41:00,
2013-07-05 16:46:00,97.2,74.9,29.93,NE,45,2.3,2.3,49,0.00,CLR,,0.00,WeatherDisplay:10.37,2013-07-05 20:46:00,
2013-07-05 16:51:00,97.5,74.5,29.93,NE,45,3.5,3.5,48,0.00,CLR,,0.00,WeatherDisplay:10.37,2013-07-05 20:51:00,
2013-07-05 16:56:00,99.5,75.7,29.93,SE,135,3.5,3.5,47,0.00,CLR,,0.00,WeatherDisplay:10.37,2013-07-05 20:56:00,
2013-07-05 17:01:00,97.9,74.9,29.93,East,90,2.7,2.7,48,0.00,CLR,,0.00,WeatherDisplay:10.37,2013-07-05 21:01:00,
2013-07-05 17:06:00,96.6,74.9,29.93,South,180,4.6,4.6,50,0.00,CLR,,0.00,WeatherDisplay:10.37,2013-07-05 21:06:00,
2013-07-05 17:11:00,96.8,73.9,29.93,West,270,3.7,3.7,48,0.00,CLR,,0.00,WeatherDisplay:10.37,2013-07-05 21:11:00,
2013-07-05 17:16:00,96.8,73.9,29.92,SE,135,4.6,4.6,48,0.00,CLR,,0.00,WeatherDisplay:10.37,2013-07-05 21:16:00,
2013-07-05 17:21:00,96.6,73.7,29.92,South,180,2.7,2.7,48,0.00,CLR,,0.00,WeatherDisplay:10.37,2013-07-05 21:21:00,
2013-07-05 17:26:00,95.9,74.3,29.92,SSE,158,3.5,3.5,50,0.00,CLR,,0.00,WeatherDisplay:10.37,2013-07-05 21:26:00,
2013-07-05 17:31:00,95.5,74.5,29.92,ENE,68,4.6,4.6,51,0.00,CLR,,0.00,WeatherDisplay:10.37,2013-07-05 21:31:00,
2013-07-05 17:36:00,95.2,74.2,29.92,NE,45,2.3,2.3,51,0.00,CLR,,0.00,WeatherDisplay:10.37,2013-07-05 21:36:00,
2013-07-05 17:41:00,96.1,73.8,29.92,ESE,112,4.6,4.6,49,0.00,CLR,,0.00,WeatherDisplay:10.37,2013-07-05 21:41:00,
2013-07-05 17:46:00,95.7,74.1,29.92,West,270,6.9,6.9,50,0.00,CLR,,0.00,WeatherDisplay:10.37,2013-07-05 21:46:00,
2013-07-05 17:51:00,95.0,73.4,29.92,NE,45,5.8,5.8,50,0.00,CLR,,0.00,WeatherDisplay:10.37,2013-07-05 21:51:00,
2013-07-05 17:56:00,95.7,74.1,29.92,ESE,112,1.2,1.2,50,0.00,CLR,,0.00,WeatherDisplay:10.37,2013-07-05 21:56:00,
2013-07-05 18:01:00,95.7,74.1,29.92,NE,45,2.3,2.3,50,0.00,CLR,,0.00,WeatherDisplay:10.37,2013-07-05 22:01:00,
2013-07-05 18:06:00,93.6,73.3,29.92,SSE,158,4.6,4.6,52,0.00,CLR,,0.00,WeatherDisplay:10.37,2013-07-05 22:06:00,
2013-07-05 18:11:00,94.6,73.7,29.92,NE,45,1.2,1.2,51,0.00,CLR,,0.00,WeatherDisplay:10.37,2013-07-05 22:11:00,
2013-07-05 18:16:00,95.0,74.0,29.91,NE,45,4.7,4.7,51,0.00,CLR,,0.00,WeatherDisplay:10.37,2013-07-05 22:16:00,
2013-07-05 18:21:00,95.2,73.6,29.91,ESE,112,5.8,5.8,50,0.00,CLR,,0.00,WeatherDisplay:10.37,2013-07-05 22:21:00,
2013-07-05 18:26:00,93.2,73.0,29.91,ESE,112,4.6,4.6,52,0.00,CLR,,0.00,WeatherDisplay:10.37,2013-07-05 22:26:00,
2013-07-05 18:31:00,92.3,72.7,29.91,West,270,1.7,1.7,53,0.00,CLR,,0.00,WeatherDisplay:10.37,2013-07-05 22:31:00,
2013-07-05 18:36:00,90.7,71.8,29.91,East,90,3.5,3.5,54,0.00,CLR,,0.00,WeatherDisplay:10.37,2013-07-05 22:36:00,
2013-07-05 18:41:00,90.5,71.6,29.91,NNE,22,5.8,5.8,54,0.00,CLR,,0.00,WeatherDisplay:10.37,2013-07-05 22:41:00,
2013-07-05 18:46:00,89.8,70.9,29.91,SE,135,2.3,2.3,54,0.00,CLR,,0.00,WeatherDisplay:10.37,2013-07-05 22:46:00,
2013-07-05 18:51:00,90.0,71.1,29.92,SE,135,3.5,3.5,54,0.00,CLR,,0.00,WeatherDisplay:10.37,2013-07-05 22:51:00,
2013-07-05 18:56:00,89.1,70.8,29.92,West,270,1.2,1.2,55,0.00,CLR,,0.00,WeatherDisplay:10.37,2013-07-05 22:56:00,
2013-07-05 19:01:00,89.1,70.8,29.92,SSE,158,3.2,3.2,55,0.00,CLR,,0.00,WeatherDisplay:10.37,2013-07-05 23:01:00,
2013-07-05 19:06:00,89.1,70.8,29.92,ESE,112,2.3,2.3,55,0.00,CLR,,0.00,WeatherDisplay:10.37,2013-07-05 23:06:00,
2013-07-05 19:11:00,89.1,70.8,29.92,ESE,112,4.6,4.6,55,0.00,CLR,,0.00,WeatherDisplay:10.37,2013-07-05 23:11:00,
2013-07-05 19:12:00,88.9,70.6,29.92,SSE,158,3.5,3.5,55,0.00,CLR,,0.00,WeatherDisplay:10.37,2013-07-05 23:12:00,
2013-07-05 19:17:00,88.3,70.6,29.92,NE,45,1.2,1.2,56,0.00,CLR,,0.00,WeatherDisplay:10.37,2013-07-05 23:17:00,
2013-07-05 19:22:00,87.8,70.7,29.92,South,180,2.3,2.3,57,0.00,CLR,,0.00,WeatherDisplay:10.37,2013-07-05 23:22:00,
2013-07-05 19:27:00,87.8,70.7,29.91,South,180,1.2,1.2,57,0.00,CLR,,0.00,WeatherDisplay:10.37,2013-07-05 23:27:00,
2013-07-05 19:32:00,87.6,70.5,29.91,NE,45,0.0,0.0,57,0.00,CLR,,0.00,WeatherDisplay:10.37,2013-07-05 23:32:00,
2013-07-05 19:37:00,87.1,71.0,29.91,ENE,68,0.0,0.0,59,0.00,CLR,,0.00,WeatherDisplay:10.37,2013-07-05 23:37:00,
2013-07-05 19:42:00,86.9,70.3,29.91,West,270,0.0,0.0,58,0.00,CLR,,0.00,WeatherDisplay:10.37,2013-07-05 23:42:00,
2013-07-05 19:47:00,86.7,70.2,29.91,NNE,22,0.0,0.0,58,0.00,CLR,,0.00,WeatherDisplay:10.37,2013-07-05 23:47:00,
2013-07-05 19:52:00,86.4,70.4,29.91,ENE,68,0.0,0.0,59,0.00,CLR,,0.00,WeatherDisplay:10.37,2013-07-05 23:52:00,
2013-07-05 19:57:00,85.8,69.8,29.91,NE,45,0.0,0.0,59,0.00,CLR,,0.00,WeatherDisplay:10.37,2013-07-05 23:57:00,
2013-07-05 20:02:00,85.6,70.1,29.90,SE,135,0.0,0.0,60,0.00,CLR,,0.00,WeatherDisplay:10.37,2013-07-06 00:02:00,
2013-07-05 20:07:00,85.5,70.0,29.90,SSE,158,0.0,0.0,60,0.00,CLR,,0.00,WeatherDisplay:10.37,2013-07-06 00:07:00,
2013-07-05 20:12:00,85.1,70.1,29.90,West,270,0.0,0.0,61,0.00,CLR,,0.00,WeatherDisplay:10.37,2013-07-06 00:12:00,
2013-07-05 20:17:00,84.9,69.5,29.90,East,90,1.1,1.1,60,0.00,CLR,,0.00,WeatherDisplay:10.37,2013-07-06 00:17:00,
2013-07-05 20:22:00,84.7,68.8,29.90,NNE,22,0.0,0.0,59,0.00,CLR,,0.00,WeatherDisplay:10.37,2013-07-06 00:22:00,
2013-07-05 20:23:00,84.7,68.8,29.90,NNE,22,0.0,0.0,59,0.00,CLR,,0.00,WeatherDisplay:10.37,2013-07-06 00:23:00,
2013-07-05 20:28:00,84.6,69.2,29.91,SE,135,0.0,0.0,60,0.00,CLR,,0.00,WeatherDisplay:10.37,2013-07-06 00:28:00,
2013-07-05 20:33:00,84.4,69.0,29.91,ENE,68,0.0,0.0,60,0.00,CLR,,0.00,WeatherDisplay:10.37,2013-07-06 00:33:00,
2013-07-05 20:38:00,84.2,69.3,29.91,NE,45,0.0,0.0,61,0.00,CLR,,0.00,WeatherDisplay:10.37,2013-07-06 00:38:00,
2013-07-05 20:43:00,84.0,69.1,29.91,ESE,112,0.0,0.0,61,0.00,CLR,,0.00,WeatherDisplay:10.37,2013-07-06 00:43:00,
2013-07-05 20:48:00,84.0,69.6,29.91,East,90,0.0,0.0,62,0.00,CLR,,0.00,WeatherDisplay:10.37,2013-07-06 00:48:00,
2013-07-05 20:53:00,83.8,69.4,29.91,NNE,22,0.0,0.0,62,0.00,CLR,,0.00,WeatherDisplay:10.37,2013-07-06 00:53:00,
2013-07-05 20:58:00,83.5,68.6,29.91,NNE,22,0.0,0.0,61,0.00,CLR,,0.00,WeatherDisplay:10.37,2013-07-06 00:58:00,
2013-07-05 21:03:00,83.8,68.4,29.91,NNE,22,2.3,2.3,60,0.00,CLR,,0.00,WeatherDisplay:10.37,2013-07-06 01:03:00,
2013-07-05 21:08:00,83.8,68.9,29.91,ESE,112,2.3,2.3,61,0.00,CLR,,0.00,WeatherDisplay:10.37,2013-07-06 01:08:00,
2013-07-05 21:13:00,84.2,67.8,29.91,NNE,22,2.3,2.3,58,0.00,CLR,,0.00,WeatherDisplay:10.37,2013-07-06 01:13:00,
2013-07-05 21:18:00,83.8,68.9,29.92,South,180,0.0,0.0,61,0.00,CLR,,0.00,WeatherDisplay:10.37,2013-07-06 01:18:00,
2013-07-05 21:23:00,83.8,68.4,29.92,NNE,22,1.2,1.2,60,0.00,CLR,,0.00,WeatherDisplay:10.37,2013-07-06 01:23:00,
2013-07-05 21:28:00,83.7,67.8,29.93,NNE,22,2.3,2.3,59,0.00,CLR,,0.00,WeatherDisplay:10.37,2013-07-06 01:28:00,
2013-07-05 21:33:00,83.7,68.3,29.93,South,180,0.0,0.0,60,0.00,CLR,,0.00,WeatherDisplay:10.37,2013-07-06 01:33:00,
2013-07-05 21:38:00,83.3,68.4,29.94,NNE,22,0.0,0.0,61,0.00,CLR,,0.00,WeatherDisplay:10.37,2013-07-06 01:38:00,
2013-07-05 21:43:00,83.3,68.4,29.94,SSE,158,0.0,0.0,61,0.00,CLR,,0.00,WeatherDisplay:10.37,2013-07-06 01:43:00,
2013-07-05 21:48:00,83.3,68.4,29.94,NE,45,0.0,0.0,61,0.00,CLR,,0.00,WeatherDisplay:10.37,2013-07-06 01:48:00,
2013-07-05 21:53:00,82.9,68.1,29.94,NNE,22,1.2,1.2,61,0.00,CLR,,0.00,WeatherDisplay:10.37,2013-07-06 01:53:00,
2013-07-05 21:58:00,82.9,68.5,29.94,ESE,112,1.2,1.2,62,0.00,CLR,,0.00,WeatherDisplay:10.37,2013-07-06 01:58:00,
2013-07-05 22:03:00,82.9,68.5,29.94,South,180,1.1,1.1,62,0.00,CLR,,0.00,WeatherDisplay:10.37,2013-07-06 02:03:00,
2013-07-05 22:08:00,82.9,69.0,29.94,ENE,68,0.0,0.0,63,0.00,CLR,,0.00,WeatherDisplay:10.37,2013-07-06 02:08:00,
2013-07-05 22:13:00,82.9,69.0,29.94,NE,45,0.0,0.0,63,0.00,CLR,,0.00,WeatherDisplay:10.37,2013-07-06 02:13:00,
2013-07-05 22:18:00,82.6,68.7,29.93,ESE,112,0.0,0.0,63,0.00,CLR,,0.00,WeatherDisplay:10.37,2013-07-06 02:18:00,
2013-07-05 22:23:00,82.4,69.0,29.93,ESE,112,0.0,0.0,64,0.00,CLR,,0.00,WeatherDisplay:10.37,2013-07-06 02:23:00,
2013-07-05 22:28:00,82.2,69.3,29.93,SE,135,0.0,0.0,65,0.00,CLR,,0.00,WeatherDisplay:10.37,2013-07-06 02:28:00,
2013-07-05 22:33:00,82.0,69.1,29.93,South,180,0.0,0.0,65,0.00,CLR,,0.00,WeatherDisplay:10.37,2013-07-06 02:33:00,
2013-07-05 22:38:00,81.7,69.7,29.92,ESE,112,1.1,0.0,67,0.00,CLR,,0.00,WeatherDisplay:10.37,2013-07-06 02:38:00,
2013-07-05 22:43:00,81.7,69.7,29.92,ESE,112,0.0,0.0,67,0.00,CLR,,0.00,WeatherDisplay:10.37,2013-07-06 02:43:00,
2013-07-05 22:48:00,81.5,69.9,29.92,SSE,158,0.0,0.0,68,0.00,CLR,,0.00,WeatherDisplay:10.37,2013-07-06 02:48:00,
2013-07-05 22:53:00,81.3,69.7,29.93,NNE,22,0.0,0.0,68,0.00,CLR,,0.00,WeatherDisplay:10.37,2013-07-06 02:53:00,
2013-07-05 22:58:00,81.3,69.7,29.93,NE,45,0.0,0.0,68,0.00,CLR,,0.00,WeatherDisplay:10.37,2013-07-06 02:58:00,
2013-07-05 23:03:00,81.1,70.0,29.93,ESE,112,0.0,0.0,69,0.00,CLR,,0.00,WeatherDisplay:10.37,2013-07-06 03:03:00,
2013-07-05 23:08:00,81.3,70.2,29.93,East,90,0.0,0.0,69,0.00,CLR,,0.00,WeatherDisplay:10.37,2013-07-06 03:08:00,
2013-07-05 23:13:00,81.1,70.0,29.93,ENE,68,0.0,0.0,69,0.00,CLR,,0.00,WeatherDisplay:10.37,2013-07-06 03:13:00,
2013-07-05 23:18:00,81.0,69.9,29.93,ENE,68,0.0,0.0,69,0.00,CLR,,0.00,WeatherDisplay:10.37,2013-07-06 03:18:00,
2013-07-05 23:23:00,81.0,70.3,29.93,ENE,68,0.0,0.0,70,0.00,CLR,,0.00,WeatherDisplay:10.37,2013-07-06 03:23:00,
2013-07-05 23:28:00,81.0,70.3,29.93,ENE,68,0.0,0.0,70,0.00,CLR,,0.00,WeatherDisplay:10.37,2013-07-06 03:28:00,
2013-07-05 23:33:00,80.8,70.1,29.93,ENE,68,0.0,0.0,70,0.00,CLR,,0.00,WeatherDisplay:10.37,2013-07-06 03:33:00,
2013-07-05 23:38:00,81.1,70.4,29.94,NNE,22,1.2,1.2,70,0.00,CLR,,0.00,WeatherDisplay:10.37,2013-07-06 03:38:00,
2013-07-05 23:43:00,80.8,70.1,29.94,ESE,112,0.0,0.0,70,0.00,CLR,,0.00,WeatherDisplay:10.37,2013-07-06 03:43:00,
2013-07-05 23:48:00,80.8,70.1,29.94,SSE,158,3.5,3.5,70,0.00,CLR,,0.00,WeatherDisplay:10.37,2013-07-06 03:48:00,
2013-07-05 23:53:00,80.6,70.3,29.93,WNW,292,2.3,2.3,71,0.00,CLR,,0.00,WeatherDisplay:10.37,2013-07-06 03:53:00,
2013-07-05 23:58:00,80.6,70.3,29.93,East,90,0.0,0.0,71,0.00,CLR,,0.00,WeatherDisplay:10.37,2013-07-06 03:58:00,